createdAt,value
2022-11-06T00:01:37.570Z,13.90
2022-11-06T00:04:05.278Z,13.07
2022-11-06T00:06:33.879Z,13.15
2022-11-06T00:09:03.174Z,15.02
2022-11-06T00:11:30.563Z,13.00
2022-11-06T00:14:01.534Z,14.00
2022-11-06T00:16:29.404Z,15.60
2022-11-06T00:18:56.877Z,14.85
2022-11-06T00:21:26.389Z,16.55
2022-11-06T00:23:55.035Z,13.40
2022-11-06T00:26:24.644Z,13.27
2022-11-06T00:28:52.803Z,13.88
2022-11-06T00:31:23.529Z,13.48
2022-11-06T00:33:51.176Z,15.23
2022-11-06T00:36:20.584Z,14.43
2022-11-06T00:38:47.977Z,14.43
2022-11-06T00:41:16.678Z,13.23
2022-11-06T00:43:48.950Z,15.93
2022-11-06T00:46:17.486Z,12.93
2022-11-06T00:48:46.823Z,16.00
2022-11-06T00:51:16.827Z,15.23
2022-11-06T00:53:45.189Z,14.65
2022-11-06T00:56:14.160Z,11.95
2022-11-06T00:58:42.238Z,13.60
2022-11-06T01:01:11.090Z,13.63
2022-11-06T01:03:39.296Z,12.73
2022-11-06T01:06:10.626Z,13.60
2022-11-06T01:08:38.403Z,14.65
2022-11-06T01:11:07.715Z,12.55
2022-11-06T01:13:35.155Z,14.60
2022-11-06T01:16:04.882Z,14.70
2022-11-06T01:20:59.292Z,13.00
2022-11-06T01:23:28.068Z,13.82
2022-11-06T01:25:58.711Z,15.65
2022-11-06T01:28:27.052Z,13.35
2022-11-06T01:30:54.527Z,13.50
2022-11-06T01:33:22.338Z,13.55
2022-11-06T01:35:51.303Z,13.38
2022-11-06T01:38:18.691Z,14.18
2022-11-06T01:40:48.808Z,15.02
2022-11-06T01:43:22.319Z,11.73
2022-11-06T01:45:51.321Z,13.35
2022-11-06T01:48:21.155Z,15.50
2022-11-06T01:50:54.286Z,14.70
2022-11-06T01:53:23.483Z,12.82
2022-11-06T01:55:54.363Z,13.13
2022-11-06T01:58:25.480Z,15.10
2022-11-06T02:00:52.962Z,14.68
2022-11-06T02:03:20.383Z,15.73
2022-11-06T02:05:48.191Z,14.02
2022-11-06T02:08:18.212Z,15.20
2022-11-06T02:10:46.423Z,14.23
2022-11-06T02:13:31.523Z,15.07
2022-11-06T02:16:06.653Z,14.70
2022-11-06T02:18:58.406Z,14.18
2022-11-06T02:21:52.628Z,14.68
2022-11-06T02:24:46.061Z,14.02
2022-11-06T02:27:17.260Z,12.63
2022-11-06T02:29:53.693Z,15.45
2022-11-06T02:32:26.391Z,13.43
2022-11-06T02:34:55.693Z,14.32
2022-11-06T02:37:28.604Z,14.23
2022-11-06T02:40:00.443Z,12.18
2022-11-06T02:42:30.938Z,16.95
2022-11-06T02:45:00.725Z,15.48
2022-11-06T02:47:32.081Z,18.58
2022-11-06T02:50:04.730Z,16.45
2022-11-06T02:52:37.499Z,12.95
2022-11-06T02:55:09.954Z,14.73
2022-11-06T02:57:43.228Z,15.52
2022-11-06T03:00:14.140Z,21.58
2022-11-06T03:02:47.339Z,15.10
2022-11-06T03:05:19.706Z,14.95
2022-11-06T03:07:53.986Z,12.65
2022-11-06T03:10:26.143Z,12.60
2022-11-06T03:12:57.028Z,12.73
2022-11-06T03:15:32.168Z,13.57
2022-11-06T03:18:09.216Z,12.27
2022-11-06T03:20:41.966Z,11.05
2022-11-06T03:23:14.245Z,13.57
2022-11-06T03:25:47.077Z,12.52
2022-11-06T03:28:25.051Z,11.85
2022-11-06T03:30:57.311Z,14.68
2022-11-06T03:33:32.791Z,14.02
2022-11-06T03:36:06.091Z,12.95
2022-11-06T03:38:42.203Z,15.38
2022-11-06T03:41:14.948Z,14.00
2022-11-06T03:43:47.579Z,13.55
2022-11-06T03:46:20.401Z,15.05
2022-11-06T03:48:51.450Z,19.70
2022-11-06T03:51:22.435Z,17.08
2022-11-06T03:53:52.680Z,17.77
2022-11-06T03:56:25.286Z,16.05
2022-11-06T03:58:56.591Z,15.60
2022-11-06T04:01:28.457Z,19.58
2022-11-06T04:04:01.808Z,16.58
2022-11-06T04:06:33.994Z,22.00
2022-11-06T04:09:05.757Z,17.13
2022-11-06T04:11:36.364Z,14.65
2022-11-06T04:14:07.699Z,10.98
2022-11-06T04:16:38.574Z,13.68
2022-11-06T04:19:13.751Z,14.05
2022-11-06T04:21:51.047Z,17.33
2022-11-06T04:24:27.418Z,15.15
2022-11-06T04:27:24.700Z,16.70
2022-11-06T04:30:05.283Z,19.00
2022-11-06T04:32:40.909Z,18.08
2022-11-06T04:35:15.669Z,17.48
2022-11-06T04:37:50.027Z,18.33
2022-11-06T04:40:23.595Z,19.33
2022-11-06T04:42:57.825Z,14.98
2022-11-06T04:45:30.306Z,19.58
2022-11-06T04:47:58.939Z,17.45
2022-11-06T04:50:29.064Z,20.85
2022-11-06T04:52:58.102Z,16.42
2022-11-06T04:55:26.243Z,17.10
2022-11-06T04:57:53.631Z,18.60
2022-11-06T05:00:21.131Z,22.92
2022-11-06T05:02:50.014Z,19.50
2022-11-06T05:05:17.464Z,19.20
2022-11-06T05:07:44.895Z,17.60
2022-11-06T05:10:12.342Z,15.07
2022-11-06T05:12:39.822Z,18.42
2022-11-06T05:15:08.284Z,18.25
2022-11-06T05:17:36.764Z,13.60
2022-11-06T05:20:06.872Z,13.65
2022-11-06T05:22:34.395Z,14.77
2022-11-06T05:25:02.172Z,14.20
2022-11-06T05:27:29.758Z,13.57
2022-11-06T05:29:57.126Z,18.98
2022-11-06T05:32:24.559Z,14.30
2022-11-06T05:34:52.051Z,17.15
2022-11-06T05:37:20.928Z,17.23
2022-11-06T05:39:48.351Z,15.47
2022-11-06T05:42:15.848Z,15.07
2022-11-06T05:44:43.145Z,11.68
2022-11-06T05:47:10.486Z,15.98
2022-11-06T05:49:37.799Z,14.88
2022-11-06T05:52:05.457Z,12.05
2022-11-06T05:54:34.395Z,10.68
2022-11-06T05:57:01.818Z,13.90
2022-11-06T05:59:29.292Z,14.10
2022-11-06T06:01:57.036Z,14.48
2022-11-06T06:04:25.031Z,17.15
2022-11-06T06:06:52.598Z,19.63
2022-11-06T06:09:20.221Z,13.93
2022-11-06T06:11:52.946Z,13.82
2022-11-06T06:14:21.235Z,13.95
2022-11-06T06:16:48.647Z,17.35
2022-11-06T06:19:16.032Z,13.52
2022-11-06T06:21:43.392Z,18.52
2022-11-06T06:24:10.833Z,16.02
2022-11-06T06:26:38.288Z,19.65
2022-11-06T06:29:07.119Z,17.67
2022-11-06T06:31:34.541Z,19.63
2022-11-06T06:34:01.932Z,13.70
2022-11-06T06:36:29.351Z,15.57
2022-11-06T06:38:56.836Z,12.35
2022-11-06T06:41:24.188Z,12.75
2022-11-06T06:43:51.602Z,14.68
2022-11-06T06:46:20.594Z,15.57
2022-11-06T06:48:47.919Z,14.95
2022-11-06T06:51:19.650Z,15.57
2022-11-06T06:53:48.559Z,17.05
2022-11-06T06:56:15.913Z,13.05
2022-11-06T06:58:43.256Z,15.15
2022-11-06T07:01:11.385Z,16.35
2022-11-06T07:03:40.583Z,14.55
2022-11-06T07:06:08.144Z,14.60
2022-11-06T07:08:46.248Z,14.30
2022-11-06T07:11:13.713Z,17.52
2022-11-06T07:13:41.315Z,15.13
2022-11-06T07:16:10.966Z,17.80
2022-11-06T07:21:09.206Z,15.80
2022-11-06T07:23:36.988Z,14.77
2022-11-06T07:26:05.643Z,13.40
2022-11-06T07:28:33.348Z,14.73
2022-11-06T07:31:02.233Z,13.98
2022-11-06T07:33:31.207Z,16.67
2022-11-06T07:36:04.871Z,14.88
2022-11-06T07:38:34.036Z,15.57
2022-11-06T07:41:05.497Z,17.63
2022-11-06T07:43:33.918Z,14.55
2022-11-06T07:46:02.325Z,18.38
2022-11-06T07:48:30.528Z,17.70
2022-11-06T07:50:58.776Z,14.70
2022-11-06T07:53:27.908Z,15.27
2022-11-06T07:55:56.930Z,19.58
2022-11-06T07:58:24.987Z,13.13
2022-11-06T08:00:54.401Z,19.80
2022-11-06T08:03:23.326Z,13.07
2022-11-06T08:05:50.732Z,17.03
2022-11-06T08:08:18.556Z,15.02
2022-11-06T08:10:47.866Z,14.80
2022-11-06T08:13:16.378Z,15.83
2022-11-06T08:15:44.464Z,13.98
2022-11-06T08:18:12.843Z,19.90
2022-11-06T08:20:40.853Z,15.27
2022-11-06T08:23:10.988Z,13.10
2022-11-06T08:25:38.732Z,14.48
2022-11-06T08:28:07.649Z,15.70
2022-11-06T08:30:35.280Z,12.05
2022-11-06T08:33:04.899Z,13.98
2022-11-06T08:38:01.845Z,13.23
2022-11-06T08:40:31.180Z,13.70
2022-11-06T08:43:02.717Z,13.23
2022-11-06T08:45:32.029Z,14.35
2022-11-06T08:48:01.908Z,13.93
2022-11-06T08:50:29.504Z,12.15
2022-11-06T08:52:57.280Z,11.55
2022-11-06T08:55:24.820Z,15.95
2022-11-06T08:57:54.708Z,13.07
2022-11-06T09:00:22.234Z,12.32
2022-11-06T09:02:51.045Z,10.95
2022-11-06T09:05:19.058Z,14.13
2022-11-06T09:07:46.484Z,11.77
2022-11-06T09:10:13.878Z,13.02
2022-11-06T09:12:41.442Z,11.45
2022-11-06T09:15:09.766Z,13.27
2022-11-06T09:17:42.803Z,10.70
2022-11-06T09:20:13.251Z,10.32
2022-11-06T09:22:41.373Z,12.60
2022-11-06T09:25:09.810Z,13.45
2022-11-06T09:27:42.573Z,13.27
2022-11-06T09:30:11.961Z,12.18
2022-11-06T09:32:39.624Z,14.02
2022-11-06T09:35:07.622Z,12.18
2022-11-06T09:37:36.509Z,13.43
2022-11-06T09:40:06.582Z,16.10
2022-11-06T09:42:44.412Z,15.55
2022-11-06T09:45:16.246Z,17.83
2022-11-06T09:47:49.650Z,13.35
2022-11-06T09:50:21.255Z,13.80
2022-11-06T09:52:55.130Z,12.95
2022-11-06T09:55:28.231Z,13.07
2022-11-06T09:57:58.637Z,18.38
2022-11-06T10:00:26.567Z,17.70
2022-11-06T10:02:56.949Z,15.45
2022-11-06T10:05:27.324Z,19.85
2022-11-06T10:07:59.251Z,14.63
2022-11-06T10:10:31.055Z,15.15
2022-11-06T10:13:13.655Z,15.23
2022-11-06T10:15:49.156Z,18.08
2022-11-06T10:18:27.113Z,14.73
2022-11-06T10:20:58.693Z,13.23
2022-11-06T10:23:36.324Z,15.40
2022-11-06T10:26:10.335Z,14.60
2022-11-06T10:28:54.288Z,15.05
2022-11-06T10:31:31.536Z,13.85
2022-11-06T10:34:02.642Z,13.93
2022-11-06T10:36:36.314Z,16.30
2022-11-06T10:39:14.045Z,15.88
2022-11-06T10:41:47.033Z,19.77
2022-11-06T10:44:21.156Z,18.83
2022-11-06T10:46:52.396Z,17.40
2022-11-06T10:49:30.063Z,17.67
2022-11-06T10:52:12.920Z,16.88
2022-11-06T10:54:55.758Z,14.35
2022-11-06T10:57:35.316Z,20.15
2022-11-06T11:00:03.359Z,19.00
2022-11-06T11:02:34.563Z,16.10
2022-11-06T11:05:02.129Z,19.33
2022-11-06T11:07:34.227Z,18.98
2022-11-06T11:10:27.891Z,17.08
2022-11-06T11:12:57.107Z,16.17
2022-11-06T11:15:26.187Z,17.27
2022-11-06T11:18:24.744Z,26.55
2022-11-06T11:21:04.076Z,20.17
2022-11-06T11:23:31.660Z,20.27
2022-11-06T11:26:20.151Z,26.88
2022-11-06T11:28:54.047Z,21.48
2022-11-06T11:31:28.871Z,20.65
2022-11-06T11:34:01.303Z,23.13
2022-11-06T11:36:48.279Z,19.17
2022-11-06T11:39:16.989Z,17.20
2022-11-06T11:41:45.916Z,17.02
2022-11-06T11:44:16.347Z,18.10
2022-11-06T11:46:48.432Z,20.02
2022-11-06T11:49:30.373Z,14.90
2022-11-06T11:51:59.436Z,20.23
2022-11-06T11:54:30.814Z,19.13
2022-11-06T11:57:05.248Z,20.20
2022-11-06T11:59:38.089Z,19.63
2022-11-06T12:02:15.815Z,19.17
2022-11-06T12:04:46.686Z,17.00
2022-11-06T12:07:22.647Z,23.33
2022-11-06T12:09:51.024Z,19.00
2022-11-06T12:12:25.713Z,17.90
2022-11-06T12:15:17.335Z,18.98
2022-11-06T12:17:47.803Z,15.85
2022-11-06T12:20:21.011Z,15.18
2022-11-06T12:22:51.711Z,20.40
2022-11-06T12:25:25.619Z,21.10
2022-11-06T12:27:57.963Z,20.13
2022-11-06T12:30:25.864Z,22.40
2022-11-06T12:33:04.429Z,19.60
2022-11-06T12:35:36.775Z,20.83
2022-11-06T12:38:15.541Z,15.55
2022-11-06T12:40:49.208Z,19.58
2022-11-06T12:43:25.724Z,25.60
2022-11-06T12:46:15.458Z,17.50
2022-11-06T12:51:33.386Z,17.35
2022-11-06T12:54:16.333Z,18.70
2022-11-06T12:56:52.696Z,17.60
2022-11-06T12:59:34.259Z,17.50
2022-11-06T13:02:17.991Z,18.05
2022-11-06T13:04:53.780Z,16.30
2022-11-06T13:08:05.805Z,18.25
2022-11-06T13:10:50.429Z,17.70
2022-11-06T13:13:41.904Z,17.50
2022-11-06T13:16:21.390Z,19.75
2022-11-06T13:18:53.512Z,18.15
2022-11-06T13:21:28.960Z,18.40
2022-11-06T13:24:00.869Z,18.52
2022-11-06T13:26:36.335Z,18.38
2022-11-06T13:29:05.691Z,20.00
2022-11-06T13:31:39.758Z,15.55
2022-11-06T13:34:11.001Z,19.67
2022-11-06T13:36:38.800Z,17.38
2022-11-06T13:39:15.572Z,17.92
2022-11-06T13:41:42.975Z,16.95
2022-11-06T13:44:11.917Z,20.30
2022-11-06T13:46:50.308Z,19.47
2022-11-06T13:49:28.370Z,20.20
2022-11-06T13:51:58.841Z,17.17
2022-11-06T13:54:41.903Z,13.75
2022-11-06T14:00:49.967Z,18.92
2022-11-06T14:03:46.484Z,15.80
2022-11-06T14:06:20.816Z,18.45
2022-11-06T14:08:51.340Z,15.38
2022-11-06T14:11:21.468Z,15.43
2022-11-06T14:14:01.275Z,21.50
2022-11-06T14:16:33.179Z,16.85
2022-11-06T14:19:10.984Z,15.70
2022-11-06T14:21:48.140Z,16.92
2022-11-06T14:24:32.504Z,16.08
2022-11-06T14:27:01.772Z,16.27
2022-11-06T14:29:55.396Z,16.33
2022-11-06T14:32:40.818Z,21.77
2022-11-06T14:35:46.305Z,18.10
2022-11-06T14:38:31.963Z,16.10
2022-11-06T14:40:59.908Z,14.30
2022-11-06T14:43:30.633Z,17.70
2022-11-06T14:46:01.690Z,15.85
2022-11-06T14:48:32.895Z,19.63
2022-11-06T14:51:03.209Z,20.02
2022-11-06T14:53:35.135Z,22.63
2022-11-06T14:56:04.687Z,14.13
2022-11-06T14:58:34.790Z,17.55
2022-11-06T15:01:12.728Z,16.05
2022-11-06T15:03:48.833Z,18.05
2022-11-06T15:06:39.796Z,16.33
2022-11-06T15:09:12.954Z,17.73
2022-11-06T15:11:57.611Z,15.85
2022-11-06T15:14:57.384Z,17.55
2022-11-06T15:17:27.553Z,18.90
2022-11-06T15:20:08.644Z,16.05
2022-11-06T15:22:41.717Z,17.50
2022-11-06T15:25:21.890Z,17.50
2022-11-06T15:27:58.207Z,14.82
2022-11-06T15:30:28.460Z,17.88
2022-11-06T15:32:57.352Z,17.20
2022-11-06T15:35:27.734Z,18.60
2022-11-06T15:38:03.572Z,17.52
2022-11-06T15:40:34.360Z,15.15
2022-11-06T15:43:07.784Z,17.70
2022-11-06T15:45:35.253Z,16.45
2022-11-06T15:48:05.747Z,17.65
2022-11-06T15:50:33.845Z,17.70
2022-11-06T15:53:21.967Z,14.98
2022-11-06T15:55:55.339Z,22.55
2022-11-06T15:58:31.545Z,15.90
2022-11-06T16:01:00.502Z,17.20
2022-11-06T16:03:30.704Z,15.05
2022-11-06T16:06:01.295Z,16.27
2022-11-06T16:08:31.354Z,17.83
2022-11-06T16:11:01.949Z,20.17
2022-11-06T16:13:30.200Z,17.92
2022-11-06T16:16:00.052Z,17.90
2022-11-06T16:18:30.097Z,18.27
2022-11-06T16:21:00.828Z,14.48
2022-11-06T16:23:39.183Z,15.43
2022-11-06T16:26:11.829Z,17.75
2022-11-06T16:28:43.224Z,18.10
2022-11-06T16:31:16.562Z,17.08
2022-11-06T16:33:54.088Z,17.98
2022-11-06T16:36:21.878Z,15.25
2022-11-06T16:38:49.678Z,19.23
2022-11-06T16:41:20.305Z,18.80
2022-11-06T16:44:24.695Z,20.58
2022-11-06T16:47:13.292Z,18.33
2022-11-06T16:49:41.969Z,31.42
2022-11-06T16:52:22.044Z,37.30
2022-11-06T16:54:50.685Z,30.38
2022-11-06T16:57:23.733Z,27.63
2022-11-06T16:59:57.327Z,36.38
2022-11-06T17:02:29.164Z,29.13
2022-11-06T17:05:15.302Z,30.17
2022-11-06T17:07:43.911Z,33.10
2022-11-06T17:10:38.495Z,32.40
2022-11-06T17:13:18.709Z,33.20
2022-11-06T17:15:48.093Z,46.83
2022-11-06T17:18:18.875Z,37.72
2022-11-06T17:20:50.610Z,40.28
2022-11-06T17:23:18.293Z,30.85
2022-11-06T17:25:47.148Z,43.70
2022-11-06T17:28:16.134Z,32.65
2022-11-06T17:30:43.471Z,40.35
2022-11-06T17:33:11.257Z,42.20
2022-11-06T17:35:38.827Z,39.00
2022-11-06T17:38:07.596Z,38.88
2022-11-06T17:40:35.207Z,42.58
2022-11-06T17:43:02.591Z,36.97
2022-11-06T17:45:31.603Z,49.80
2022-11-06T17:47:59.190Z,38.20
2022-11-06T17:50:27.078Z,36.60
2022-11-06T17:52:54.501Z,38.08
2022-11-06T17:55:21.903Z,42.72
2022-11-06T17:57:49.555Z,41.40
2022-11-06T18:00:17.274Z,42.15
2022-11-06T18:03:00.989Z,44.67
2022-11-06T18:05:29.845Z,36.13
2022-11-06T18:07:57.268Z,35.10
2022-11-06T18:10:29.943Z,35.25
2022-11-06T18:12:57.979Z,45.88
2022-11-06T18:15:25.382Z,37.80
2022-11-06T18:17:54.234Z,39.90
2022-11-06T18:20:22.160Z,38.33
2022-11-06T18:22:49.513Z,52.28
2022-11-06T18:25:16.934Z,37.50
2022-11-06T18:27:44.480Z,36.90
2022-11-06T18:30:13.254Z,46.78
2022-11-06T18:32:41.075Z,37.28
2022-11-06T18:35:10.261Z,42.17
2022-11-06T18:37:37.596Z,31.92
2022-11-06T18:40:05.768Z,34.92
2022-11-06T18:42:33.131Z,33.50
2022-11-06T18:45:00.547Z,34.67
2022-11-06T18:47:27.916Z,35.45
2022-11-06T18:49:55.252Z,34.20
2022-11-06T18:52:51.463Z,41.30
2022-11-06T18:55:11.406Z,36.93
2022-11-06T18:57:38.784Z,35.53
2022-11-06T19:00:08.145Z,32.90
2022-11-06T19:02:35.557Z,31.38
2022-11-06T19:05:03.359Z,35.22
2022-11-06T19:07:33.184Z,36.10
2022-11-06T19:12:27.757Z,32.33
2022-11-06T19:14:55.152Z,43.60
2022-11-06T19:17:22.694Z,35.25
2022-11-06T19:19:50.459Z,38.50
2022-11-06T19:22:17.865Z,35.88
2022-11-06T19:24:46.741Z,36.67
2022-11-06T19:27:14.503Z,42.17
2022-11-06T19:29:41.856Z,37.03
2022-11-06T19:32:09.359Z,37.10
2022-11-06T19:34:39.343Z,33.30
2022-11-06T19:37:07.044Z,34.05
2022-11-06T19:39:34.573Z,33.70
2022-11-06T19:42:03.599Z,34.55
2022-11-06T19:44:30.976Z,35.72
2022-11-06T19:46:58.323Z,31.63
2022-11-06T19:49:26.162Z,32.28
2022-11-06T19:51:53.816Z,33.33
2022-11-06T19:54:21.216Z,31.50
2022-11-06T19:57:26.908Z,42.92
2022-11-06T19:59:37.639Z,32.78
2022-11-06T20:02:05.492Z,34.30
2022-11-06T20:04:33.174Z,45.25
2022-11-06T20:07:00.661Z,38.72
2022-11-06T20:09:28.183Z,27.63
2022-11-06T20:11:55.635Z,26.15
2022-11-06T20:14:23.083Z,24.75
2022-11-06T20:16:51.954Z,28.00
2022-11-06T20:19:19.486Z,25.07
2022-11-06T20:21:46.903Z,24.38
2022-11-06T20:24:14.624Z,25.42
2022-11-06T20:26:42.317Z,22.98
2022-11-06T20:29:09.786Z,21.10
2022-11-06T20:31:37.267Z,20.27
2022-11-06T20:34:06.180Z,20.92
2022-11-06T20:36:33.556Z,21.53
2022-11-06T20:39:01.373Z,20.20
2022-11-06T20:41:30.100Z,20.77
2022-11-06T20:43:57.741Z,20.30
2022-11-06T20:46:25.590Z,20.20
2022-11-06T20:48:53.281Z,19.27
2022-11-06T20:51:24.270Z,21.23
2022-11-06T20:53:51.949Z,22.27
2022-11-06T20:56:20.843Z,19.20
2022-11-06T20:58:48.248Z,16.90
2022-11-06T21:01:17.866Z,17.52
2022-11-06T21:03:46.000Z,17.42
2022-11-06T21:06:13.912Z,17.35
2022-11-06T21:08:43.676Z,17.92
2022-11-06T21:13:39.960Z,16.00
2022-11-06T21:16:09.655Z,15.07
2022-11-06T21:18:38.498Z,16.33
2022-11-06T21:21:07.147Z,15.97
2022-11-06T21:23:35.190Z,17.05
2022-11-06T21:26:06.281Z,14.20
2022-11-06T21:28:33.659Z,13.50
2022-11-06T21:31:01.026Z,13.70
2022-11-06T21:33:28.957Z,16.48
2022-11-06T21:36:05.250Z,13.43
2022-11-06T21:38:32.881Z,14.77
2022-11-06T21:41:00.502Z,13.80
2022-11-06T21:43:29.775Z,13.32
2022-11-06T21:46:00.231Z,15.50
2022-11-06T21:48:45.196Z,15.77
2022-11-06T21:51:15.363Z,14.13
2022-11-06T21:53:42.744Z,16.58
2022-11-06T21:56:13.763Z,14.43
2022-11-06T21:58:42.507Z,17.13
2022-11-06T22:01:10.104Z,16.05
2022-11-06T22:03:37.447Z,17.38
2022-11-06T22:06:06.127Z,14.38
2022-11-06T22:08:36.428Z,15.10
2022-11-06T22:11:11.613Z,15.77
2022-11-06T22:13:38.932Z,17.00
2022-11-06T22:16:09.016Z,17.85
2022-11-06T22:18:36.944Z,16.77
2022-11-06T22:21:08.756Z,19.80
2022-11-06T22:23:36.475Z,16.30
2022-11-06T22:26:05.094Z,15.35
2022-11-06T22:28:32.828Z,20.35
2022-11-06T22:31:00.446Z,17.15
2022-11-06T22:33:30.056Z,18.50
2022-11-06T22:36:02.349Z,16.13
2022-11-06T22:38:29.761Z,18.10
2022-11-06T22:40:58.656Z,17.83
2022-11-06T22:43:26.894Z,19.90
2022-11-06T22:45:58.929Z,17.38
2022-11-06T22:48:28.170Z,17.92
2022-11-06T22:50:56.072Z,18.88
2022-11-06T22:53:23.403Z,19.33
2022-11-06T22:55:55.512Z,20.92
2022-11-06T22:58:22.994Z,19.38
2022-11-06T23:00:50.512Z,18.58
2022-11-06T23:03:18.401Z,17.52
2022-11-06T23:05:47.660Z,17.85
2022-11-06T23:08:15.543Z,20.17
2022-11-06T23:10:43.440Z,20.90
2022-11-06T23:13:12.330Z,19.73
2022-11-06T23:15:39.871Z,18.95
2022-11-06T23:18:07.231Z,18.77
2022-11-06T23:20:35.211Z,18.25
2022-11-06T23:23:04.805Z,20.83
2022-11-06T23:25:32.804Z,21.20
2022-11-06T23:28:01.479Z,18.73
2022-11-06T23:30:29.055Z,20.23
2022-11-06T23:32:58.449Z,19.00
2022-11-06T23:35:32.111Z,17.73
2022-11-06T23:38:00.208Z,19.10
2022-11-06T23:40:29.102Z,18.40
2022-11-06T23:42:56.400Z,19.97
2022-11-06T23:45:24.245Z,19.08
2022-11-06T23:47:51.731Z,20.60
2022-11-06T23:50:19.273Z,20.77
2022-11-06T23:52:46.749Z,18.40
2022-11-06T23:55:14.224Z,18.70
2022-11-06T23:57:42.980Z,17.00
